createdAt,value
2023-02-08T00:00:58.121Z,514.38
2023-02-08T00:03:26.025Z,486.35
2023-02-08T00:05:53.799Z,478.35
2023-02-08T00:08:21.541Z,497.10
2023-02-08T00:10:50.098Z,455.27
2023-02-08T00:13:17.979Z,489.85
2023-02-08T00:15:46.561Z,515.10
2023-02-08T00:18:14.596Z,494.75
2023-02-08T00:20:43.068Z,460.45
2023-02-08T00:23:11.101Z,460.55
2023-02-08T00:25:39.013Z,452.77
2023-02-08T00:28:09.175Z,488.60
2023-02-08T00:30:37.336Z,502.58
2023-02-08T00:33:05.264Z,499.73
2023-02-08T00:35:32.977Z,497.52
2023-02-08T00:38:00.811Z,486.73
2023-02-08T00:40:28.741Z,486.98
2023-02-08T00:42:58.078Z,493.33
2023-02-08T00:45:25.896Z,492.67
2023-02-08T00:47:53.646Z,484.35
2023-02-08T00:50:21.992Z,491.90
2023-02-08T00:52:50.040Z,484.20
2023-02-08T00:55:17.875Z,499.02
2023-02-08T00:57:45.703Z,503.50
2023-02-08T01:00:14.078Z,497.48
2023-02-08T01:02:41.882Z,490.80
2023-02-08T01:05:09.738Z,521.78
2023-02-08T01:07:38.302Z,510.13
2023-02-08T01:10:07.319Z,477.85
2023-02-08T01:12:35.563Z,482.10
2023-02-08T01:15:03.550Z,508.80
2023-02-08T01:17:31.524Z,473.83
2023-02-08T01:19:59.288Z,491.13
2023-02-08T01:22:29.022Z,513.22
2023-02-08T01:24:56.888Z,525.28
2023-02-08T01:27:24.752Z,530.33
2023-02-08T01:29:53.232Z,506.45
2023-02-08T01:32:21.210Z,509.08
2023-02-08T01:34:49.010Z,467.73
2023-02-08T01:37:16.853Z,505.83
2023-02-08T01:39:44.670Z,500.73
2023-02-08T01:42:17.561Z,496.70
2023-02-08T01:45:16.277Z,533.33
2023-02-08T01:47:44.987Z,461.90
2023-02-08T01:50:14.044Z,539.90
2023-02-08T01:52:42.865Z,519.47
2023-02-08T01:55:16.637Z,530.83
2023-02-08T01:57:45.164Z,523.15
2023-02-08T02:00:22.664Z,516.03
2023-02-08T02:02:53.879Z,482.98
2023-02-08T02:05:22.823Z,499.77
2023-02-08T02:07:50.704Z,511.55
2023-02-08T02:10:29.824Z,511.95
2023-02-08T02:12:58.287Z,534.95
2023-02-08T02:15:26.334Z,496.17
2023-02-08T02:17:54.205Z,515.40
2023-02-08T02:20:31.116Z,536.75
2023-02-08T02:23:13.738Z,532.20
2023-02-08T02:26:08.317Z,510.15
2023-02-08T02:28:51.141Z,514.55
2023-02-08T02:34:18.144Z,512.70
2023-02-08T02:36:53.965Z,514.45
2023-02-08T02:39:28.482Z,519.10
2023-02-08T02:42:23.820Z,493.80
2023-02-08T02:45:08.106Z,545.47
2023-02-08T02:47:59.033Z,545.22
2023-02-08T02:50:46.930Z,516.67
2023-02-08T02:53:25.289Z,521.83
2023-02-08T02:56:02.735Z,542.10
2023-02-08T02:58:30.749Z,539.88
2023-02-08T03:00:59.572Z,523.63
2023-02-08T03:03:28.939Z,550.92
2023-02-08T03:05:59.781Z,522.40
2023-02-08T03:08:31.361Z,540.08
2023-02-08T03:11:19.097Z,499.83
2023-02-08T03:14:19.407Z,515.45
2023-02-08T03:17:40.882Z,529.15
2023-02-08T03:20:10.666Z,532.17
2023-02-08T03:23:09.120Z,523.20
2023-02-08T03:25:39.028Z,546.67
2023-02-08T03:28:20.748Z,534.15
2023-02-08T03:31:01.620Z,513.95
2023-02-08T03:33:41.152Z,510.75
2023-02-08T03:36:22.270Z,489.23
2023-02-08T03:38:50.284Z,505.88
2023-02-08T03:41:23.260Z,504.67
2023-02-08T03:44:06.419Z,500.15
2023-02-08T03:46:42.843Z,476.20
2023-02-08T03:49:22.595Z,498.55
2023-02-08T03:51:50.542Z,492.38
2023-02-08T03:54:23.293Z,515.95
2023-02-08T03:57:16.568Z,507.27
2023-02-08T03:59:47.603Z,503.42
2023-02-08T04:02:18.517Z,493.00
2023-02-08T04:04:47.693Z,516.28
2023-02-08T04:07:15.506Z,514.15
2023-02-08T04:09:43.408Z,505.42
2023-02-08T04:12:11.092Z,473.55
2023-02-08T04:14:38.823Z,477.48
2023-02-08T04:17:06.672Z,465.70
2023-02-08T04:19:34.512Z,458.80
2023-02-08T04:22:02.321Z,444.33
2023-02-08T04:24:30.145Z,438.85
2023-02-08T04:26:57.916Z,444.15
2023-02-08T04:29:25.760Z,438.58
2023-02-08T04:31:53.661Z,438.65
2023-02-08T04:34:21.548Z,396.85
2023-02-08T04:36:49.242Z,440.80
2023-02-08T04:39:16.987Z,403.52
2023-02-08T04:41:44.875Z,401.80
2023-02-08T04:44:12.536Z,403.80
2023-02-08T04:46:40.477Z,396.05
2023-02-08T04:49:08.310Z,379.42
2023-02-08T04:51:36.233Z,346.33
2023-02-08T04:54:04.082Z,363.35
2023-02-08T04:56:31.834Z,341.98
2023-02-08T04:58:59.875Z,358.25
2023-02-08T05:01:27.819Z,282.50
2023-02-08T05:03:55.658Z,323.70
2023-02-08T05:06:26.669Z,315.80
2023-02-08T05:08:54.488Z,292.13
2023-02-08T05:11:25.554Z,324.67
2023-02-08T05:13:53.500Z,340.48
2023-02-08T05:16:21.214Z,319.90
2023-02-08T05:18:49.011Z,323.77
2023-02-08T05:21:16.708Z,333.75
2023-02-08T05:23:46.438Z,325.17
2023-02-08T05:26:14.616Z,333.92
2023-02-08T05:28:42.510Z,334.65
2023-02-08T05:31:15.445Z,313.20
2023-02-08T05:33:43.469Z,322.83
2023-02-08T05:36:11.328Z,352.98
2023-02-08T05:38:39.136Z,324.50
2023-02-08T05:41:06.820Z,327.58
2023-02-08T05:43:34.540Z,317.00
2023-02-08T05:46:02.349Z,329.52
2023-02-08T05:48:31.578Z,307.85
2023-02-08T05:50:59.925Z,322.35
2023-02-08T05:53:27.982Z,297.40
2023-02-08T05:55:56.947Z,311.90
2023-02-08T05:58:24.817Z,303.95
2023-02-08T06:00:53.880Z,300.33
2023-02-08T06:03:21.774Z,302.30
2023-02-08T06:05:49.555Z,273.50
2023-02-08T06:08:17.369Z,306.80
2023-02-08T06:10:46.215Z,281.33
2023-02-08T06:13:14.042Z,288.83
2023-02-08T06:15:41.794Z,267.88
2023-02-08T06:18:09.638Z,282.90
2023-02-08T06:20:39.491Z,292.70
2023-02-08T06:23:07.576Z,282.00
2023-02-08T06:25:35.455Z,282.05
2023-02-08T06:28:03.640Z,295.02
2023-02-08T06:30:31.555Z,274.90
2023-02-08T06:32:59.484Z,275.88
2023-02-08T06:35:27.433Z,271.88
2023-02-08T06:37:55.378Z,280.52
2023-02-08T06:40:23.303Z,257.55
2023-02-08T06:42:51.096Z,283.05
2023-02-08T06:45:19.173Z,264.75
2023-02-08T06:47:47.045Z,262.02
2023-02-08T06:50:15.698Z,263.95
2023-02-08T06:52:43.535Z,249.73
2023-02-08T06:55:11.186Z,243.07
2023-02-08T06:57:38.969Z,263.10
2023-02-08T07:00:07.277Z,247.25
2023-02-08T07:02:35.068Z,248.68
2023-02-08T07:05:02.903Z,246.95
2023-02-08T07:07:30.841Z,234.00
2023-02-08T07:09:58.780Z,237.30
2023-02-08T07:12:26.415Z,247.90
2023-02-08T07:14:54.206Z,248.25
2023-02-08T07:17:22.262Z,249.60
2023-02-08T07:19:50.099Z,240.45
2023-02-08T07:22:17.808Z,250.15
2023-02-08T07:24:45.584Z,259.60
2023-02-08T07:27:13.532Z,253.88
2023-02-08T07:29:41.458Z,261.85
2023-02-08T07:32:09.461Z,252.75
2023-02-08T07:34:38.083Z,255.10
2023-02-08T07:37:05.733Z,248.88
2023-02-08T07:39:33.533Z,247.27
2023-02-08T07:42:01.348Z,263.17
2023-02-08T07:44:35.195Z,259.13
2023-02-08T07:47:02.921Z,276.63
2023-02-08T07:49:31.118Z,280.75
2023-02-08T07:52:02.183Z,266.27
2023-02-08T07:54:30.060Z,264.77
2023-02-08T07:56:57.926Z,251.60
2023-02-08T07:59:25.836Z,251.43
2023-02-08T08:01:53.845Z,251.90
2023-02-08T08:04:22.380Z,253.98
2023-02-08T08:06:51.953Z,262.70
2023-02-08T08:09:20.734Z,266.73
2023-02-08T08:11:48.554Z,270.17
2023-02-08T08:14:16.313Z,288.17
2023-02-08T08:16:44.322Z,247.30
2023-02-08T08:19:12.197Z,276.08
2023-02-08T08:21:40.058Z,273.63
2023-02-08T08:24:07.891Z,274.05
2023-02-08T08:26:35.793Z,280.33
2023-02-08T08:29:03.584Z,264.60
2023-02-08T08:31:31.626Z,265.23
2023-02-08T08:33:59.460Z,274.55
2023-02-08T08:36:27.217Z,261.80
2023-02-08T08:38:54.958Z,278.42
2023-02-08T08:41:23.585Z,272.33
2023-02-08T08:43:51.322Z,259.83
2023-02-08T08:46:19.399Z,262.15
2023-02-08T08:48:47.226Z,262.38
2023-02-08T08:51:15.101Z,264.85
2023-02-08T08:53:42.999Z,287.85
2023-02-08T08:56:10.815Z,273.70
2023-02-08T08:58:38.642Z,276.55
2023-02-08T09:01:06.534Z,268.50
2023-02-08T09:03:34.367Z,280.48
2023-02-08T09:06:02.143Z,273.00
2023-02-08T09:08:30.016Z,271.55
2023-02-08T09:10:57.773Z,276.90
2023-02-08T09:13:25.593Z,263.60
2023-02-08T09:15:53.427Z,260.60
2023-02-08T09:18:21.312Z,255.95
2023-02-08T09:20:49.061Z,264.15
2023-02-08T09:23:16.888Z,255.45
2023-02-08T09:25:44.742Z,256.30
2023-02-08T09:28:12.629Z,260.75
2023-02-08T09:30:40.609Z,265.13
2023-02-08T09:33:08.473Z,261.27
2023-02-08T09:35:36.249Z,251.98
2023-02-08T09:38:05.783Z,265.08
2023-02-08T09:40:48.678Z,261.10
2023-02-08T09:43:16.437Z,276.95
2023-02-08T09:46:00.392Z,260.30
2023-02-08T09:48:34.606Z,220.95
2023-02-08T09:51:28.601Z,228.95
2023-02-08T09:54:09.977Z,244.10
2023-02-08T09:56:40.809Z,217.55
2023-02-08T09:59:17.552Z,221.55
2023-02-08T10:01:45.481Z,212.68
2023-02-08T10:04:33.492Z,205.93
2023-02-08T10:07:01.354Z,214.95
2023-02-08T10:09:29.213Z,206.02
2023-02-08T10:12:33.937Z,215.45
2023-02-08T10:15:29.284Z,186.93
2023-02-08T10:18:00.002Z,185.68
2023-02-08T10:20:38.232Z,187.48
2023-02-08T10:23:36.743Z,178.88
2023-02-08T10:26:29.330Z,197.52
2023-02-08T10:29:42.361Z,177.15
2023-02-08T10:32:20.960Z,184.48
2023-02-08T10:34:51.107Z,177.10
2023-02-08T10:37:20.709Z,198.80
2023-02-08T10:39:49.597Z,199.35
2023-02-08T10:42:19.491Z,182.95
2023-02-08T10:45:01.908Z,188.48
2023-02-08T10:47:56.410Z,201.95
2023-02-08T10:50:37.695Z,182.32
2023-02-08T10:53:05.687Z,183.98
2023-02-08T10:55:36.208Z,206.05
2023-02-08T10:58:05.867Z,219.85
2023-02-08T11:00:35.459Z,238.77
2023-02-08T11:03:12.000Z,215.35
2023-02-08T11:05:41.120Z,196.27
2023-02-08T11:08:18.211Z,194.05
2023-02-08T11:11:09.225Z,163.48
2023-02-08T11:13:37.695Z,162.50
2023-02-08T11:16:06.798Z,161.82
2023-02-08T11:18:42.422Z,173.57
2023-02-08T11:21:22.082Z,172.27
2023-02-08T11:23:51.821Z,161.40
2023-02-08T11:26:24.952Z,170.82
2023-02-08T11:29:04.165Z,167.15
2023-02-08T11:31:32.575Z,176.18
2023-02-08T11:34:05.127Z,163.15
2023-02-08T11:36:34.487Z,168.82
2023-02-08T11:39:04.736Z,173.93
2023-02-08T11:41:32.546Z,192.10
2023-02-08T11:44:05.096Z,181.73
2023-02-08T11:46:35.719Z,177.88
2023-02-08T11:49:04.047Z,171.68
2023-02-08T11:51:35.837Z,172.10
2023-02-08T11:54:04.247Z,166.13
2023-02-08T11:56:33.440Z,172.82
2023-02-08T11:59:08.137Z,165.50
2023-02-08T12:01:37.659Z,170.48
2023-02-08T12:04:10.397Z,165.60
2023-02-08T12:06:48.659Z,168.30
2023-02-08T12:09:50.029Z,164.57
2023-02-08T12:12:29.891Z,162.30
2023-02-08T12:15:22.206Z,156.55
2023-02-08T12:18:37.337Z,178.55
2023-02-08T12:21:14.537Z,165.32
2023-02-08T12:23:50.354Z,173.27
2023-02-08T12:26:24.569Z,185.98
2023-02-08T12:29:07.672Z,167.55
2023-02-08T12:31:50.505Z,180.70
2023-02-08T12:34:34.308Z,171.65
2023-02-08T12:37:32.842Z,189.80
2023-02-08T12:40:37.098Z,219.10
2023-02-08T12:43:27.424Z,247.25
2023-02-08T12:46:13.706Z,235.30
2023-02-08T12:48:52.956Z,235.05
2023-02-08T12:51:23.502Z,239.15
2023-02-08T12:53:54.777Z,267.05
2023-02-08T12:56:28.574Z,285.75
2023-02-08T12:59:11.928Z,257.73
2023-02-08T13:01:45.806Z,254.90
2023-02-08T13:04:14.472Z,278.73
2023-02-08T13:06:43.796Z,299.05
2023-02-08T13:09:35.409Z,300.88
2023-02-08T13:12:16.832Z,297.63
2023-02-08T13:15:28.380Z,268.05
2023-02-08T13:18:18.634Z,245.95
2023-02-08T13:20:52.066Z,251.65
2023-02-08T13:23:34.811Z,297.15
2023-02-08T13:26:08.677Z,352.33
2023-02-08T13:28:36.405Z,363.02
2023-02-08T13:31:09.035Z,348.35
2023-02-08T13:34:01.996Z,304.98
2023-02-08T13:36:34.974Z,289.35
2023-02-08T13:39:04.999Z,293.02
2023-02-08T13:41:33.132Z,287.00
2023-02-08T13:44:08.628Z,295.85
2023-02-08T13:46:49.466Z,288.52
2023-02-08T13:49:51.163Z,296.95
2023-02-08T13:52:46.941Z,264.92
2023-02-08T13:55:38.659Z,283.23
2023-02-08T13:58:27.590Z,283.08
2023-02-08T14:00:55.392Z,258.02
2023-02-08T14:03:29.930Z,267.25
2023-02-08T14:06:17.456Z,269.15
2023-02-08T14:08:54.563Z,279.70
2023-02-08T14:11:31.341Z,267.25
2023-02-08T14:14:05.545Z,265.45
2023-02-08T14:16:38.963Z,275.52
2023-02-08T14:19:34.082Z,266.85
2023-02-08T14:22:01.725Z,267.33
2023-02-08T14:24:36.617Z,255.02
2023-02-08T14:27:23.056Z,259.30
2023-02-08T14:30:03.890Z,224.93
2023-02-08T14:32:39.546Z,233.73
2023-02-08T14:35:16.481Z,246.85
2023-02-08T14:37:44.790Z,218.88
2023-02-08T14:40:24.634Z,222.48
2023-02-08T14:43:19.935Z,216.82
2023-02-08T14:45:49.058Z,214.38
2023-02-08T14:48:27.871Z,226.50
2023-02-08T14:51:10.936Z,243.45
2023-02-08T14:53:57.835Z,235.25
2023-02-08T14:56:29.138Z,238.48
2023-02-08T14:59:12.202Z,252.63
2023-02-08T15:02:19.021Z,243.95
2023-02-08T15:04:47.252Z,254.23
2023-02-08T15:07:46.055Z,248.13
2023-02-08T15:10:15.202Z,252.82
2023-02-08T15:12:46.183Z,261.25
2023-02-08T15:15:29.463Z,247.98
2023-02-08T15:17:57.259Z,275.33
2023-02-08T15:20:29.312Z,284.77
2023-02-08T15:23:05.079Z,284.33
2023-02-08T15:25:36.849Z,315.52
2023-02-08T15:28:19.245Z,315.40
2023-02-08T15:30:47.228Z,329.10
2023-02-08T15:33:16.967Z,279.52
2023-02-08T15:35:45.234Z,264.65
2023-02-08T15:38:17.619Z,269.80
2023-02-08T15:40:45.751Z,270.27
2023-02-08T15:43:14.004Z,270.27
2023-02-08T15:45:41.949Z,274.17
2023-02-08T15:48:10.932Z,287.52
2023-02-08T15:50:38.741Z,274.95
2023-02-08T15:53:07.288Z,270.58
2023-02-08T15:55:39.456Z,281.88
2023-02-08T15:58:30.609Z,272.73
2023-02-08T16:00:59.918Z,304.00
2023-02-08T16:03:30.145Z,297.98
2023-02-08T16:06:00.013Z,301.33
2023-02-08T16:08:30.577Z,306.40
2023-02-08T16:11:12.902Z,294.92
2023-02-08T16:13:42.102Z,296.38
2023-02-08T16:16:19.893Z,288.50
2023-02-08T16:18:50.603Z,298.85
2023-02-08T16:21:42.843Z,299.05
2023-02-08T16:24:14.224Z,308.80
2023-02-08T16:26:59.883Z,310.08
2023-02-08T16:29:36.229Z,309.15
2023-02-08T16:32:27.763Z,305.13
2023-02-08T16:34:57.654Z,308.90
2023-02-08T16:37:29.305Z,307.70
2023-02-08T16:39:58.918Z,333.83
2023-02-08T16:42:40.118Z,361.85
2023-02-08T16:45:16.207Z,340.23
2023-02-08T16:47:54.105Z,322.90
2023-02-08T16:50:26.818Z,370.52
2023-02-08T16:53:04.338Z,383.75
2023-02-08T16:55:33.003Z,379.90
2023-02-08T16:58:00.857Z,394.30
2023-02-08T17:00:33.848Z,416.60
2023-02-08T17:03:01.783Z,389.90
2023-02-08T17:05:31.256Z,468.73
2023-02-08T17:07:59.259Z,414.85
2023-02-08T17:10:30.677Z,387.48
2023-02-08T17:13:17.402Z,392.35
2023-02-08T17:15:48.066Z,427.77
2023-02-08T17:18:17.258Z,392.38
2023-02-08T17:20:45.182Z,368.10
2023-02-08T17:23:13.866Z,381.42
2023-02-08T17:25:42.061Z,454.23
2023-02-08T17:28:15.186Z,469.40
2023-02-08T17:30:45.462Z,623.97
2023-02-08T17:33:18.748Z,524.88
2023-02-08T17:35:48.532Z,476.40
2023-02-08T17:38:16.553Z,655.67
2023-02-08T17:40:44.554Z,588.13
2023-02-08T17:43:12.699Z,634.63
2023-02-08T17:45:41.271Z,433.55
2023-02-08T17:48:09.455Z,485.88
2023-02-08T17:50:37.404Z,454.73
2023-02-08T17:53:05.284Z,453.88
2023-02-08T17:55:33.137Z,490.50
2023-02-08T17:58:00.901Z,548.05
2023-02-08T18:00:28.710Z,446.58
2023-02-08T18:02:57.940Z,584.20
2023-02-08T18:05:27.796Z,443.42
2023-02-08T18:07:58.349Z,505.38
2023-02-08T18:10:26.844Z,458.35
2023-02-08T18:12:54.599Z,485.42
2023-02-08T18:15:22.636Z,502.77
2023-02-08T18:17:54.174Z,510.58
2023-02-08T18:20:22.318Z,547.67
2023-02-08T18:22:50.084Z,482.65
2023-02-08T18:25:18.128Z,618.30
2023-02-08T18:27:45.831Z,592.90
2023-02-08T18:30:14.018Z,528.22
2023-02-08T18:32:41.815Z,525.67
2023-02-08T18:35:09.675Z,497.85
2023-02-08T18:37:37.996Z,537.53
2023-02-08T18:40:07.231Z,506.02
2023-02-08T18:42:40.890Z,498.48
2023-02-08T18:45:09.451Z,484.58
2023-02-08T18:47:37.693Z,503.77
2023-02-08T18:50:06.307Z,492.08
2023-02-08T18:52:34.065Z,527.70
2023-02-08T18:55:01.670Z,504.10
2023-02-08T18:57:29.544Z,506.38
2023-02-08T18:59:57.435Z,491.75
2023-02-08T19:02:27.578Z,478.30
2023-02-08T19:04:55.610Z,497.65
2023-02-08T19:07:23.533Z,495.17
2023-02-08T19:09:51.321Z,524.38
2023-02-08T19:12:19.378Z,472.65
2023-02-08T19:14:49.902Z,474.92
2023-02-08T19:17:17.694Z,530.15
2023-02-08T19:19:45.735Z,515.30
2023-02-08T19:22:13.489Z,572.17
2023-02-08T19:24:41.332Z,473.75
2023-02-08T19:27:09.110Z,522.55
2023-02-08T19:29:37.021Z,456.05
2023-02-08T19:32:05.276Z,476.52
2023-02-08T19:34:33.256Z,451.70
2023-02-08T19:37:01.240Z,464.05
2023-02-08T19:39:29.027Z,487.33
2023-02-08T19:41:59.171Z,494.20
2023-02-08T19:44:30.179Z,483.10
2023-02-08T19:46:58.291Z,477.60
2023-02-08T19:49:26.446Z,501.65
2023-02-08T19:51:54.519Z,501.02
2023-02-08T19:54:22.359Z,507.13
2023-02-08T19:56:55.020Z,480.48
2023-02-08T20:01:54.681Z,437.73
2023-02-08T20:04:22.654Z,407.08
2023-02-08T20:06:53.703Z,513.85
2023-02-08T20:09:21.673Z,537.05
2023-02-08T20:11:56.748Z,562.78
2023-02-08T20:14:25.557Z,553.65
2023-02-08T20:16:53.497Z,501.58
2023-02-08T20:19:21.526Z,552.83
2023-02-08T20:21:49.322Z,534.95
2023-02-08T20:24:17.192Z,558.55
2023-02-08T20:26:45.983Z,506.13
2023-02-08T20:29:13.988Z,531.40
2023-02-08T20:31:43.165Z,480.42
2023-02-08T20:34:13.073Z,503.20
2023-02-08T20:36:49.626Z,642.15
2023-02-08T20:39:22.419Z,492.67
2023-02-08T20:41:50.321Z,506.58
2023-02-08T20:44:18.545Z,478.52
2023-02-08T20:46:46.994Z,514.72
2023-02-08T20:49:17.960Z,487.90
2023-02-08T20:51:45.618Z,500.75
2023-02-08T20:54:13.359Z,503.27
2023-02-08T20:56:41.308Z,543.15
2023-02-08T20:59:09.758Z,512.05
2023-02-08T21:01:37.614Z,534.10
2023-02-08T21:04:05.562Z,517.85
2023-02-08T21:06:34.933Z,553.30
2023-02-08T21:09:10.728Z,533.20
2023-02-08T21:11:38.654Z,635.50
2023-02-08T21:14:06.687Z,537.15
2023-02-08T21:16:34.574Z,523.72
2023-02-08T21:19:02.396Z,495.85
2023-02-08T21:21:30.321Z,544.80
2023-02-08T21:23:58.272Z,506.00
2023-02-08T21:26:26.465Z,499.38
2023-02-08T21:28:55.349Z,490.25
2023-02-08T21:31:23.794Z,481.73
2023-02-08T21:33:51.857Z,476.17
2023-02-08T21:36:22.041Z,486.65
2023-02-08T21:38:49.957Z,488.77
2023-02-08T21:41:28.043Z,514.15
2023-02-08T21:43:57.413Z,480.13
2023-02-08T21:46:25.330Z,478.80
2023-02-08T21:49:11.446Z,477.95
2023-02-08T21:51:57.916Z,448.13
2023-02-08T21:54:42.195Z,497.58
2023-02-08T21:57:15.855Z,509.63
2023-02-08T21:59:43.904Z,516.17
2023-02-08T22:02:17.319Z,506.23
2023-02-08T22:05:03.383Z,489.45
2023-02-08T22:07:42.085Z,496.08
2023-02-08T22:10:11.279Z,502.20
2023-02-08T22:12:41.424Z,511.10
2023-02-08T22:15:13.643Z,511.17
2023-02-08T22:17:41.637Z,499.25
2023-02-08T22:20:09.971Z,503.27
2023-02-08T22:22:37.907Z,476.17
2023-02-08T22:25:05.959Z,482.42
2023-02-08T22:27:34.899Z,497.65
2023-02-08T22:30:02.662Z,482.95
2023-02-08T22:32:30.544Z,506.98
2023-02-08T22:34:58.382Z,495.63
2023-02-08T22:37:26.222Z,490.60
2023-02-08T22:39:53.990Z,502.95
2023-02-08T22:42:21.776Z,489.50
2023-02-08T22:44:49.553Z,516.10
2023-02-08T22:47:17.357Z,509.17
2023-02-08T22:49:45.113Z,489.88
2023-02-08T22:52:12.923Z,493.83
2023-02-08T22:54:42.153Z,489.95
2023-02-08T22:57:10.353Z,484.33
2023-02-08T22:59:39.035Z,500.40
2023-02-08T23:02:06.782Z,482.33
2023-02-08T23:04:34.549Z,489.38
2023-02-08T23:07:02.382Z,494.27
2023-02-08T23:09:30.166Z,504.52
2023-02-08T23:11:58.024Z,468.90
2023-02-08T23:14:26.440Z,500.98
2023-02-08T23:16:54.329Z,457.08
2023-02-08T23:19:22.270Z,495.20
2023-02-08T23:21:50.180Z,488.30
2023-02-08T23:24:17.991Z,482.63
2023-02-08T23:26:45.798Z,460.30
2023-02-08T23:29:13.562Z,459.25
2023-02-08T23:31:41.693Z,474.60
2023-02-08T23:34:11.724Z,482.10
2023-02-08T23:36:39.601Z,485.70
2023-02-08T23:39:08.120Z,468.33
2023-02-08T23:41:35.960Z,445.02
2023-02-08T23:44:03.790Z,437.88
2023-02-08T23:46:32.026Z,401.60
2023-02-08T23:48:59.966Z,346.63
2023-02-08T23:51:27.841Z,353.17
2023-02-08T23:53:55.829Z,335.83
2023-02-08T23:56:28.117Z,351.48
2023-02-08T23:58:57.866Z,344.05
